sensor_id;sensor_type;location;lat;lon;timestamp;P1;durP1;ratioP1;P2;durP2;ratioP2
21593;SDS011;10959;51.328;7.322;2023-06-14T00:01:09;8.20;;;5.87;;
21593;SDS011;10959;51.328;7.322;2023-06-14T00:03:38;6.47;;;5.27;;
21593;SDS011;10959;51.328;7.322;2023-06-14T00:06:05;6.40;;;5.27;;
21593;SDS011;10959;51.328;7.322;2023-06-14T00:08:31;6.97;;;5.30;;
21593;SDS011;10959;51.328;7.322;2023-06-14T00:10:57;7.07;;;5.20;;
21593;SDS011;10959;51.328;7.322;2023-06-14T00:13:25;5.30;;;4.80;;
21593;SDS011;10959;51.328;7.322;2023-06-14T00:15:51;5.57;;;4.37;;
21593;SDS011;10959;51.328;7.322;2023-06-14T00:18:21;6.67;;;5.70;;
21593;SDS011;10959;51.328;7.322;2023-06-14T00:20:54;6.60;;;5.73;;
21593;SDS011;10959;51.328;7.322;2023-06-14T00:23:21;6.67;;;5.60;;
21593;SDS011;10959;51.328;7.322;2023-06-14T00:25:47;6.43;;;5.60;;
21593;SDS011;10959;51.328;7.322;2023-06-14T00:28:14;6.07;;;5.47;;
21593;SDS011;10959;51.328;7.322;2023-06-14T00:30:41;6.10;;;5.50;;
21593;SDS011;10959;51.328;7.322;2023-06-14T00:33:09;8.03;;;5.87;;
21593;SDS011;10959;51.328;7.322;2023-06-14T00:35:37;5.97;;;5.37;;
21593;SDS011;10959;51.328;7.322;2023-06-14T00:38:03;7.70;;;5.83;;
21593;SDS011;10959;51.328;7.322;2023-06-14T00:40:30;7.60;;;5.60;;
21593;SDS011;10959;51.328;7.322;2023-06-14T00:42:56;7.17;;;5.73;;
21593;SDS011;10959;51.328;7.322;2023-06-14T00:45:23;8.20;;;5.90;;
21593;SDS011;10959;51.328;7.322;2023-06-14T00:47:49;6.77;;;5.80;;
21593;SDS011;10959;51.328;7.322;2023-06-14T00:50:17;6.13;;;5.53;;
21593;SDS011;10959;51.328;7.322;2023-06-14T00:52:47;6.20;;;5.70;;
21593;SDS011;10959;51.328;7.322;2023-06-14T00:55:14;6.13;;;5.53;;
21593;SDS011;10959;51.328;7.322;2023-06-14T00:57:40;6.43;;;5.37;;
21593;SDS011;10959;51.328;7.322;2023-06-14T01:00:07;7.37;;;6.33;;
21593;SDS011;10959;51.328;7.322;2023-06-14T01:02:35;8.67;;;5.63;;
21593;SDS011;10959;51.328;7.322;2023-06-14T01:05:02;6.87;;;6.00;;
21593;SDS011;10959;51.328;7.322;2023-06-14T01:07:33;7.33;;;5.73;;
21593;SDS011;10959;51.328;7.322;2023-06-14T01:10:15;7.63;;;5.97;;
21593;SDS011;10959;51.328;7.322;2023-06-14T01:12:53;7.63;;;5.77;;
21593;SDS011;10959;51.328;7.322;2023-06-14T01:15:25;6.27;;;5.67;;
21593;SDS011;10959;51.328;7.322;2023-06-14T01:17:53;9.03;;;5.43;;
21593;SDS011;10959;51.328;7.322;2023-06-14T01:20:28;6.37;;;5.37;;
21593;SDS011;10959;51.328;7.322;2023-06-14T01:22:57;5.40;;;4.90;;
21593;SDS011;10959;51.328;7.322;2023-06-14T01:25:23;6.10;;;5.50;;
21593;SDS011;10959;51.328;7.322;2023-06-14T01:27:51;6.50;;;5.23;;
21593;SDS011;10959;51.328;7.322;2023-06-14T01:30:19;9.60;;;5.57;;
21593;SDS011;10959;51.328;7.322;2023-06-14T01:32:47;7.47;;;5.80;;
21593;SDS011;10959;51.328;7.322;2023-06-14T01:35:15;6.27;;;5.40;;
21593;SDS011;10959;51.328;7.322;2023-06-14T01:37:42;6.17;;;5.60;;
21593;SDS011;10959;51.328;7.322;2023-06-14T01:40:11;6.80;;;5.80;;
21593;SDS011;10959;51.328;7.322;2023-06-14T01:42:40;8.03;;;5.77;;
21593;SDS011;10959;51.328;7.322;2023-06-14T01:45:08;7.70;;;5.57;;
21593;SDS011;10959;51.328;7.322;2023-06-14T01:47:36;6.17;;;5.53;;
21593;SDS011;10959;51.328;7.322;2023-06-14T01:50:03;5.83;;;4.97;;
21593;SDS011;10959;51.328;7.322;2023-06-14T01:52:30;5.63;;;5.00;;
21593;SDS011;10959;51.328;7.322;2023-06-14T01:54:56;6.27;;;5.23;;
21593;SDS011;10959;51.328;7.322;2023-06-14T01:57:25;6.57;;;5.90;;
21593;SDS011;10959;51.328;7.322;2023-06-14T01:59:52;6.53;;;5.93;;
21593;SDS011;10959;51.328;7.322;2023-06-14T02:02:18;6.83;;;6.13;;
21593;SDS011;10959;51.328;7.322;2023-06-14T02:04:45;6.20;;;5.60;;
21593;SDS011;10959;51.328;7.322;2023-06-14T02:07:12;6.43;;;5.83;;
21593;SDS011;10959;51.328;7.322;2023-06-14T02:09:39;6.97;;;5.53;;
21593;SDS011;10959;51.328;7.322;2023-06-14T02:12:06;6.73;;;6.00;;
21593;SDS011;10959;51.328;7.322;2023-06-14T02:14:34;6.57;;;5.97;;
21593;SDS011;10959;51.328;7.322;2023-06-14T02:17:01;6.13;;;5.53;;
21593;SDS011;10959;51.328;7.322;2023-06-14T02:19:27;8.37;;;6.70;;
21593;SDS011;10959;51.328;7.322;2023-06-14T02:21:54;6.07;;;5.47;;
21593;SDS011;10959;51.328;7.322;2023-06-14T02:24:20;6.27;;;5.23;;
21593;SDS011;10959;51.328;7.322;2023-06-14T02:26:48;7.43;;;5.80;;
21593;SDS011;10959;51.328;7.322;2023-06-14T02:29:15;9.47;;;6.20;;
21593;SDS011;10959;51.328;7.322;2023-06-14T02:31:43;7.47;;;5.77;;
21593;SDS011;10959;51.328;7.322;2023-06-14T02:34:11;5.77;;;5.27;;
21593;SDS011;10959;51.328;7.322;2023-06-14T02:36:38;7.17;;;5.63;;
21593;SDS011;10959;51.328;7.322;2023-06-14T02:39:06;6.77;;;5.93;;
21593;SDS011;10959;51.328;7.322;2023-06-14T02:41:34;6.23;;;5.63;;
21593;SDS011;10959;51.328;7.322;2023-06-14T02:44:00;6.77;;;5.80;;
21593;SDS011;10959;51.328;7.322;2023-06-14T02:46:27;6.43;;;5.83;;
21593;SDS011;10959;51.328;7.322;2023-06-14T02:48:55;6.40;;;5.80;;
21593;SDS011;10959;51.328;7.322;2023-06-14T02:51:21;6.30;;;5.70;;
21593;SDS011;10959;51.328;7.322;2023-06-14T02:53:48;7.03;;;5.67;;
21593;SDS011;10959;51.328;7.322;2023-06-14T02:56:15;6.80;;;6.10;;
21593;SDS011;10959;51.328;7.322;2023-06-14T02:58:42;6.53;;;5.83;;
21593;SDS011;10959;51.328;7.322;2023-06-14T03:01:09;9.47;;;6.00;;
21593;SDS011;10959;51.328;7.322;2023-06-14T03:03:37;6.23;;;5.63;;
21593;SDS011;10959;51.328;7.322;2023-06-14T03:06:05;6.10;;;5.60;;
21593;SDS011;10959;51.328;7.322;2023-06-14T03:08:33;6.20;;;5.23;;
21593;SDS011;10959;51.328;7.322;2023-06-14T03:11:03;7.10;;;6.50;;
21593;SDS011;10959;51.328;7.322;2023-06-14T03:13:31;7.37;;;6.67;;
21593;SDS011;10959;51.328;7.322;2023-06-14T03:15:58;8.23;;;5.60;;
21593;SDS011;10959;51.328;7.322;2023-06-14T03:18:27;8.43;;;5.90;;
21593;SDS011;10959;51.328;7.322;2023-06-14T03:20:54;8.33;;;5.70;;
21593;SDS011;10959;51.328;7.322;2023-06-14T03:23:23;6.87;;;6.23;;
21593;SDS011;10959;51.328;7.322;2023-06-14T03:25:50;7.77;;;6.30;;
21593;SDS011;10959;51.328;7.322;2023-06-14T03:28:16;6.87;;;6.27;;
21593;SDS011;10959;51.328;7.322;2023-06-14T03:30:43;8.27;;;5.90;;
21593;SDS011;10959;51.328;7.322;2023-06-14T03:33:09;6.63;;;6.03;;
21593;SDS011;10959;51.328;7.322;2023-06-14T03:35:36;7.30;;;6.00;;
21593;SDS011;10959;51.328;7.322;2023-06-14T03:38:02;6.87;;;6.03;;
21593;SDS011;10959;51.328;7.322;2023-06-14T03:40:30;7.47;;;5.67;;
21593;SDS011;10959;51.328;7.322;2023-06-14T03:42:57;7.20;;;6.33;;
21593;SDS011;10959;51.328;7.322;2023-06-14T03:45:23;6.97;;;6.33;;
21593;SDS011;10959;51.328;7.322;2023-06-14T03:47:50;7.57;;;5.90;;
21593;SDS011;10959;51.328;7.322;2023-06-14T03:50:17;8.90;;;6.37;;
21593;SDS011;10959;51.328;7.322;2023-06-14T03:52:44;7.93;;;6.80;;
21593;SDS011;10959;51.328;7.322;2023-06-14T03:55:11;8.20;;;6.27;;
21593;SDS011;10959;51.328;7.322;2023-06-14T03:57:40;7.37;;;6.07;;
21593;SDS011;10959;51.328;7.322;2023-06-14T04:00:07;6.77;;;6.07;;
21593;SDS011;10959;51.328;7.322;2023-06-14T04:02:35;6.93;;;6.23;;
21593;SDS011;10959;51.328;7.322;2023-06-14T04:05:02;6.83;;;6.13;;
21593;SDS011;10959;51.328;7.322;2023-06-14T04:07:29;8.10;;;7.30;;
21593;SDS011;10959;51.328;7.322;2023-06-14T04:09:55;8.00;;;6.80;;
21593;SDS011;10959;51.328;7.322;2023-06-14T04:12:22;7.70;;;6.83;;
21593;SDS011;10959;51.328;7.322;2023-06-14T04:14:49;6.53;;;5.83;;
21593;SDS011;10959;51.328;7.322;2023-06-14T04:17:16;7.10;;;6.40;;
21593;SDS011;10959;51.328;7.322;2023-06-14T04:19:42;6.70;;;6.00;;
21593;SDS011;10959;51.328;7.322;2023-06-14T04:22:09;7.60;;;6.47;;
21593;SDS011;10959;51.328;7.322;2023-06-14T04:24:36;7.50;;;6.07;;
21593;SDS011;10959;51.328;7.322;2023-06-14T04:27:02;6.87;;;6.13;;
21593;SDS011;10959;51.328;7.322;2023-06-14T04:29:29;6.23;;;5.63;;
21593;SDS011;10959;51.328;7.322;2023-06-14T04:31:57;6.87;;;5.60;;
21593;SDS011;10959;51.328;7.322;2023-06-14T04:34:25;7.70;;;5.73;;
21593;SDS011;10959;51.328;7.322;2023-06-14T04:36:54;6.80;;;5.20;;
21593;SDS011;10959;51.328;7.322;2023-06-14T04:39:21;6.17;;;5.50;;
21593;SDS011;10959;51.328;7.322;2023-06-14T04:41:48;5.67;;;5.13;;
21593;SDS011;10959;51.328;7.322;2023-06-14T04:44:16;5.50;;;5.00;;
21593;SDS011;10959;51.328;7.322;2023-06-14T04:46:43;6.20;;;5.10;;
21593;SDS011;10959;51.328;7.322;2023-06-14T04:49:12;5.73;;;4.73;;
21593;SDS011;10959;51.328;7.322;2023-06-14T04:51:40;5.67;;;4.97;;
21593;SDS011;10959;51.328;7.322;2023-06-14T04:54:07;5.37;;;4.80;;
21593;SDS011;10959;51.328;7.322;2023-06-14T04:56:35;6.77;;;4.77;;
21593;SDS011;10959;51.328;7.322;2023-06-14T04:59:02;8.70;;;4.50;;
21593;SDS011;10959;51.328;7.322;2023-06-14T05:01:29;5.60;;;4.90;;
21593;SDS011;10959;51.328;7.322;2023-06-14T05:03:56;6.10;;;5.03;;
21593;SDS011;10959;51.328;7.322;2023-06-14T05:06:24;8.70;;;4.83;;
21593;SDS011;10959;51.328;7.322;2023-06-14T05:08:52;5.37;;;4.77;;
21593;SDS011;10959;51.328;7.322;2023-06-14T05:11:19;8.20;;;4.60;;
21593;SDS011;10959;51.328;7.322;2023-06-14T05:13:49;6.23;;;4.70;;
21593;SDS011;10959;51.328;7.322;2023-06-14T05:16:15;5.60;;;5.10;;
21593;SDS011;10959;51.328;7.322;2023-06-14T05:18:44;7.17;;;4.50;;
21593;SDS011;10959;51.328;7.322;2023-06-14T05:21:11;6.77;;;5.37;;
21593;SDS011;10959;51.328;7.322;2023-06-14T05:23:38;5.13;;;4.37;;
21593;SDS011;10959;51.328;7.322;2023-06-14T05:26:05;5.90;;;4.93;;
21593;SDS011;10959;51.328;7.322;2023-06-14T05:28:31;6.20;;;4.30;;
21593;SDS011;10959;51.328;7.322;2023-06-14T05:30:58;6.87;;;4.80;;
21593;SDS011;10959;51.328;7.322;2023-06-14T05:33:24;8.97;;;4.97;;
21593;SDS011;10959;51.328;7.322;2023-06-14T05:35:51;7.07;;;4.17;;
21593;SDS011;10959;51.328;7.322;2023-06-14T05:38:17;8.30;;;4.20;;
21593;SDS011;10959;51.328;7.322;2023-06-14T05:40:45;5.37;;;3.97;;
21593;SDS011;10959;51.328;7.322;2023-06-14T05:43:12;7.53;;;4.07;;
21593;SDS011;10959;51.328;7.322;2023-06-14T05:45:38;6.93;;;3.77;;
21593;SDS011;10959;51.328;7.322;2023-06-14T05:48:05;4.40;;;4.00;;
21593;SDS011;10959;51.328;7.322;2023-06-14T05:50:31;5.40;;;4.03;;
21593;SDS011;10959;51.328;7.322;2023-06-14T05:52:58;6.33;;;4.60;;
21593;SDS011;10959;51.328;7.322;2023-06-14T05:55:24;5.10;;;4.20;;
21593;SDS011;10959;51.328;7.322;2023-06-14T05:57:52;5.43;;;3.70;;
21593;SDS011;10959;51.328;7.322;2023-06-14T06:00:18;5.90;;;3.87;;
21593;SDS011;10959;51.328;7.322;2023-06-14T06:02:45;6.43;;;4.20;;
21593;SDS011;10959;51.328;7.322;2023-06-14T06:05:12;9.13;;;4.00;;
21593;SDS011;10959;51.328;7.322;2023-06-14T06:07:40;6.43;;;4.30;;
21593;SDS011;10959;51.328;7.322;2023-06-14T06:10:09;8.67;;;3.47;;
21593;SDS011;10959;51.328;7.322;2023-06-14T06:12:36;6.67;;;4.07;;
21593;SDS011;10959;51.328;7.322;2023-06-14T06:15:04;4.43;;;3.87;;
21593;SDS011;10959;51.328;7.322;2023-06-14T06:17:31;4.23;;;3.03;;
21593;SDS011;10959;51.328;7.322;2023-06-14T06:19:57;6.97;;;3.60;;
21593;SDS011;10959;51.328;7.322;2023-06-14T06:22:24;5.47;;;3.40;;
21593;SDS011;10959;51.328;7.322;2023-06-14T06:24:50;4.47;;;3.70;;
21593;SDS011;10959;51.328;7.322;2023-06-14T06:27:16;5.33;;;3.10;;
21593;SDS011;10959;51.328;7.322;2023-06-14T06:29:43;5.80;;;3.70;;
21593;SDS011;10959;51.328;7.322;2023-06-14T06:32:11;4.33;;;3.20;;
21593;SDS011;10959;51.328;7.322;2023-06-14T06:34:38;4.67;;;3.27;;
21593;SDS011;10959;51.328;7.322;2023-06-14T06:37:05;3.90;;;2.80;;
21593;SDS011;10959;51.328;7.322;2023-06-14T06:39:32;3.30;;;3.00;;
21593;SDS011;10959;51.328;7.322;2023-06-14T06:41:59;3.93;;;3.27;;
21593;SDS011;10959;51.328;7.322;2023-06-14T06:44:25;4.13;;;3.20;;
21593;SDS011;10959;51.328;7.322;2023-06-14T06:46:51;5.83;;;3.40;;
21593;SDS011;10959;51.328;7.322;2023-06-14T06:49:19;4.97;;;2.53;;
21593;SDS011;10959;51.328;7.322;2023-06-14T06:51:58;3.83;;;2.90;;
21593;SDS011;10959;51.328;7.322;2023-06-14T06:54:26;3.57;;;2.90;;
21593;SDS011;10959;51.328;7.322;2023-06-14T06:56:52;3.67;;;2.80;;
21593;SDS011;10959;51.328;7.322;2023-06-14T06:59:19;3.03;;;2.57;;
21593;SDS011;10959;51.328;7.322;2023-06-14T07:01:45;5.13;;;2.77;;
21593;SDS011;10959;51.328;7.322;2023-06-14T07:04:12;4.13;;;2.47;;
21593;SDS011;10959;51.328;7.322;2023-06-14T07:06:41;3.33;;;2.60;;
21593;SDS011;10959;51.328;7.322;2023-06-14T07:09:07;5.03;;;2.30;;
21593;SDS011;10959;51.328;7.322;2023-06-14T07:11:37;5.43;;;2.33;;
21593;SDS011;10959;51.328;7.322;2023-06-14T07:14:04;3.10;;;2.28;;
21593;SDS011;10959;51.328;7.322;2023-06-14T07:16:31;4.47;;;2.00;;
21593;SDS011;10959;51.328;7.322;2023-06-14T07:18:57;7.35;;;2.42;;
21593;SDS011;10959;51.328;7.322;2023-06-14T07:21:23;3.25;;;1.58;;
21593;SDS011;10959;51.328;7.322;2023-06-14T07:23:52;2.70;;;2.00;;
21593;SDS011;10959;51.328;7.322;2023-06-14T07:26:19;4.28;;;1.90;;
21593;SDS011;10959;51.328;7.322;2023-06-14T07:28:45;3.47;;;2.30;;
21593;SDS011;10959;51.328;7.322;2023-06-14T07:31:12;5.82;;;2.53;;
21593;SDS011;10959;51.328;7.322;2023-06-14T07:33:39;3.97;;;2.03;;
21593;SDS011;10959;51.328;7.322;2023-06-14T07:36:06;3.63;;;1.95;;
21593;SDS011;10959;51.328;7.322;2023-06-14T07:38:33;2.33;;;1.80;;
21593;SDS011;10959;51.328;7.322;2023-06-14T07:41:01;2.83;;;1.70;;
21593;SDS011;10959;51.328;7.322;2023-06-14T07:43:27;5.80;;;1.95;;
21593;SDS011;10959;51.328;7.322;2023-06-14T07:45:54;3.00;;;1.88;;
21593;SDS011;10959;51.328;7.322;2023-06-14T07:48:22;5.22;;;1.92;;
21593;SDS011;10959;51.328;7.322;2023-06-14T07:50:48;2.50;;;1.75;;
21593;SDS011;10959;51.328;7.322;2023-06-14T07:53:14;2.58;;;1.75;;
21593;SDS011;10959;51.328;7.322;2023-06-14T07:55:41;4.03;;;1.67;;
21593;SDS011;10959;51.328;7.322;2023-06-14T07:58:09;5.43;;;1.88;;
21593;SDS011;10959;51.328;7.322;2023-06-14T08:00:36;3.92;;;1.65;;
21593;SDS011;10959;51.328;7.322;2023-06-14T08:03:03;4.30;;;1.83;;
21593;SDS011;10959;51.328;7.322;2023-06-14T08:05:29;2.65;;;1.70;;
21593;SDS011;10959;51.328;7.322;2023-06-14T08:07:56;1.95;;;1.10;;
21593;SDS011;10959;51.328;7.322;2023-06-14T08:10:22;5.13;;;1.60;;
21593;SDS011;10959;51.328;7.322;2023-06-14T08:12:49;2.25;;;1.70;;
21593;SDS011;10959;51.328;7.322;2023-06-14T08:15:17;1.80;;;1.38;;
21593;SDS011;10959;51.328;7.322;2023-06-14T08:17:44;6.55;;;2.13;;
21593;SDS011;10959;51.328;7.322;2023-06-14T08:20:10;3.90;;;1.90;;
21593;SDS011;10959;51.328;7.322;2023-06-14T08:22:38;4.47;;;1.60;;
21593;SDS011;10959;51.328;7.322;2023-06-14T08:25:07;3.83;;;1.52;;
21593;SDS011;10959;51.328;7.322;2023-06-14T08:27:34;2.75;;;1.40;;
21593;SDS011;10959;51.328;7.322;2023-06-14T08:30:01;1.50;;;1.35;;
21593;SDS011;10959;51.328;7.322;2023-06-14T08:32:29;1.58;;;1.23;;
21593;SDS011;10959;51.328;7.322;2023-06-14T08:34:55;2.50;;;1.20;;
21593;SDS011;10959;51.328;7.322;2023-06-14T08:37:22;1.75;;;1.40;;
21593;SDS011;10959;51.328;7.322;2023-06-14T08:39:48;2.38;;;1.40;;
21593;SDS011;10959;51.328;7.322;2023-06-14T08:42:15;1.50;;;1.27;;
21593;SDS011;10959;51.328;7.322;2023-06-14T08:44:43;1.90;;;1.40;;
21593;SDS011;10959;51.328;7.322;2023-06-14T08:47:10;3.42;;;1.50;;
21593;SDS011;10959;51.328;7.322;2023-06-14T08:49:39;1.58;;;1.48;;
21593;SDS011;10959;51.328;7.322;2023-06-14T08:52:12;1.60;;;1.48;;
21593;SDS011;10959;51.328;7.322;2023-06-14T08:54:40;2.70;;;1.40;;
21593;SDS011;10959;51.328;7.322;2023-06-14T08:57:09;2.38;;;1.60;;
21593;SDS011;10959;51.328;7.322;2023-06-14T08:59:37;1.85;;;1.65;;
21593;SDS011;10959;51.328;7.322;2023-06-14T09:02:14;2.10;;;1.35;;
21593;SDS011;10959;51.328;7.322;2023-06-14T09:04:44;3.83;;;1.58;;
21593;SDS011;10959;51.328;7.322;2023-06-14T09:07:10;3.30;;;1.42;;
21593;SDS011;10959;51.328;7.322;2023-06-14T09:09:41;1.70;;;1.60;;
21593;SDS011;10959;51.328;7.322;2023-06-14T09:12:08;7.43;;;1.40;;
21593;SDS011;10959;51.328;7.322;2023-06-14T09:14:36;3.85;;;1.35;;
21593;SDS011;10959;51.328;7.322;2023-06-14T09:17:04;2.17;;;1.25;;
21593;SDS011;10959;51.328;7.322;2023-06-14T09:19:31;2.85;;;1.60;;
21593;SDS011;10959;51.328;7.322;2023-06-14T09:21:59;2.42;;;1.58;;
21593;SDS011;10959;51.328;7.322;2023-06-14T09:24:25;1.70;;;1.27;;
21593;SDS011;10959;51.328;7.322;2023-06-14T09:26:52;3.10;;;1.42;;
21593;SDS011;10959;51.328;7.322;2023-06-14T09:29:19;1.92;;;1.67;;
21593;SDS011;10959;51.328;7.322;2023-06-14T09:31:47;1.73;;;1.55;;
21593;SDS011;10959;51.328;7.322;2023-06-14T09:34:13;3.03;;;1.60;;
21593;SDS011;10959;51.328;7.322;2023-06-14T09:36:43;2.88;;;1.60;;
21593;SDS011;10959;51.328;7.322;2023-06-14T09:39:11;3.83;;;1.85;;
21593;SDS011;10959;51.328;7.322;2023-06-14T09:41:43;3.33;;;1.75;;
21593;SDS011;10959;51.328;7.322;2023-06-14T09:44:10;2.60;;;1.70;;
21593;SDS011;10959;51.328;7.322;2023-06-14T09:46:37;2.05;;;1.25;;
21593;SDS011;10959;51.328;7.322;2023-06-14T09:49:04;2.35;;;1.27;;
21593;SDS011;10959;51.328;7.322;2023-06-14T09:51:31;2.03;;;1.45;;
21593;SDS011;10959;51.328;7.322;2023-06-14T09:53:58;2.05;;;1.45;;
21593;SDS011;10959;51.328;7.322;2023-06-14T09:56:27;3.33;;;1.60;;
21593;SDS011;10959;51.328;7.322;2023-06-14T09:58:57;4.45;;;1.40;;
21593;SDS011;10959;51.328;7.322;2023-06-14T10:01:25;4.30;;;1.33;;
21593;SDS011;10959;51.328;7.322;2023-06-14T10:03:54;1.27;;;1.17;;
21593;SDS011;10959;51.328;7.322;2023-06-14T10:06:26;2.38;;;1.35;;
21593;SDS011;10959;51.328;7.322;2023-06-14T10:08:56;1.67;;;1.25;;
21593;SDS011;10959;51.328;7.322;2023-06-14T10:11:25;3.72;;;1.40;;
21593;SDS011;10959;51.328;7.322;2023-06-14T10:13:53;2.05;;;1.25;;
21593;SDS011;10959;51.328;7.322;2023-06-14T10:16:23;3.30;;;0.90;;
21593;SDS011;10959;51.328;7.322;2023-06-14T10:18:57;1.17;;;1.00;;
21593;SDS011;10959;51.328;7.322;2023-06-14T10:21:32;2.38;;;1.10;;
21593;SDS011;10959;51.328;7.322;2023-06-14T10:24:05;1.65;;;1.10;;
21593;SDS011;10959;51.328;7.322;2023-06-14T10:26:35;1.40;;;1.30;;
21593;SDS011;10959;51.328;7.322;2023-06-14T10:29:18;6.07;;;0.93;;
21593;SDS011;10959;51.328;7.322;2023-06-14T10:31:45;1.55;;;1.00;;
21593;SDS011;10959;51.328;7.322;2023-06-14T10:34:12;5.65;;;1.48;;
21593;SDS011;10959;51.328;7.322;2023-06-14T10:36:50;1.70;;;1.10;;
21593;SDS011;10959;51.328;7.322;2023-06-14T10:39:27;1.52;;;1.00;;
21593;SDS011;10959;51.328;7.322;2023-06-14T10:41:54;2.88;;;1.08;;
21593;SDS011;10959;51.328;7.322;2023-06-14T10:47:22;3.22;;;1.00;;
21593;SDS011;10959;51.328;7.322;2023-06-14T10:49:51;4.07;;;1.25;;
21593;SDS011;10959;51.328;7.322;2023-06-14T10:52:25;3.53;;;1.30;;
21593;SDS011;10959;51.328;7.322;2023-06-14T10:55:07;2.42;;;0.95;;
21593;SDS011;10959;51.328;7.322;2023-06-14T10:57:39;3.53;;;1.10;;
21593;SDS011;10959;51.328;7.322;2023-06-14T11:00:10;2.38;;;1.00;;
21593;SDS011;10959;51.328;7.322;2023-06-14T11:03:21;1.67;;;1.30;;
21593;SDS011;10959;51.328;7.322;2023-06-14T11:06:06;3.83;;;0.90;;
21593;SDS011;10959;51.328;7.322;2023-06-14T11:08:44;2.70;;;1.00;;
21593;SDS011;10959;51.328;7.322;2023-06-14T11:11:33;4.68;;;1.13;;
21593;SDS011;10959;51.328;7.322;2023-06-14T11:14:02;2.40;;;1.02;;
21593;SDS011;10959;51.328;7.322;2023-06-14T11:16:30;1.35;;;1.00;;
21593;SDS011;10959;51.328;7.322;2023-06-14T11:18:58;1.40;;;1.10;;
21593;SDS011;10959;51.328;7.322;2023-06-14T11:21:26;1.60;;;1.17;;
21593;SDS011;10959;51.328;7.322;2023-06-14T11:23:56;1.63;;;1.10;;
21593;SDS011;10959;51.328;7.322;2023-06-14T11:26:25;3.05;;;1.00;;
21593;SDS011;10959;51.328;7.322;2023-06-14T11:28:54;1.77;;;1.00;;
21593;SDS011;10959;51.328;7.322;2023-06-14T11:31:22;2.72;;;1.10;;
21593;SDS011;10959;51.328;7.322;2023-06-14T11:33:50;1.75;;;1.10;;
21593;SDS011;10959;51.328;7.322;2023-06-14T11:36:19;2.15;;;0.82;;
21593;SDS011;10959;51.328;7.322;2023-06-14T11:38:45;2.78;;;1.10;;
21593;SDS011;10959;51.328;7.322;2023-06-14T11:41:12;1.60;;;1.25;;
21593;SDS011;10959;51.328;7.322;2023-06-14T11:43:39;4.32;;;1.30;;
21593;SDS011;10959;51.328;7.322;2023-06-14T11:46:11;1.20;;;1.10;;
21593;SDS011;10959;51.328;7.322;2023-06-14T11:48:40;3.70;;;1.20;;
21593;SDS011;10959;51.328;7.322;2023-06-14T11:51:09;1.85;;;1.35;;
21593;SDS011;10959;51.328;7.322;2023-06-14T11:53:36;3.47;;;1.52;;
21593;SDS011;10959;51.328;7.322;2023-06-14T11:56:03;2.22;;;1.42;;
21593;SDS011;10959;51.328;7.322;2023-06-14T11:58:30;3.30;;;1.45;;
21593;SDS011;10959;51.328;7.322;2023-06-14T12:00:57;3.05;;;1.30;;
21593;SDS011;10959;51.328;7.322;2023-06-14T12:03:23;7.65;;;1.40;;
21593;SDS011;10959;51.328;7.322;2023-06-14T12:05:50;4.30;;;1.48;;
21593;SDS011;10959;51.328;7.322;2023-06-14T12:08:33;2.03;;;1.35;;
21593;SDS011;10959;51.328;7.322;2023-06-14T12:11:04;2.25;;;1.60;;
21593;SDS011;10959;51.328;7.322;2023-06-14T12:13:30;2.67;;;1.30;;
21593;SDS011;10959;51.328;7.322;2023-06-14T12:15:57;4.90;;;1.67;;
21593;SDS011;10959;51.328;7.322;2023-06-14T12:18:31;2.83;;;1.35;;
21593;SDS011;10959;51.328;7.322;2023-06-14T12:20:59;2.30;;;1.52;;
21593;SDS011;10959;51.328;7.322;2023-06-14T12:23:27;4.22;;;1.13;;
21593;SDS011;10959;51.328;7.322;2023-06-14T12:26:08;4.00;;;1.33;;
21593;SDS011;10959;51.328;7.322;2023-06-14T12:28:34;2.60;;;1.27;;
21593;SDS011;10959;51.328;7.322;2023-06-14T12:31:01;1.80;;;1.45;;
21593;SDS011;10959;51.328;7.322;2023-06-14T12:33:28;3.70;;;1.45;;
21593;SDS011;10959;51.328;7.322;2023-06-14T12:35:55;6.07;;;1.60;;
21593;SDS011;10959;51.328;7.322;2023-06-14T12:38:22;1.40;;;1.30;;
21593;SDS011;10959;51.328;7.322;2023-06-14T12:40:50;1.65;;;1.50;;
21593;SDS011;10959;51.328;7.322;2023-06-14T12:43:17;2.95;;;1.60;;
21593;SDS011;10959;51.328;7.322;2023-06-14T12:45:43;2.50;;;1.20;;
21593;SDS011;10959;51.328;7.322;2023-06-14T12:48:10;1.55;;;1.45;;
21593;SDS011;10959;51.328;7.322;2023-06-14T12:50:36;2.95;;;1.50;;
21593;SDS011;10959;51.328;7.322;2023-06-14T12:53:03;1.30;;;1.20;;
21593;SDS011;10959;51.328;7.322;2023-06-14T12:55:29;1.63;;;1.30;;
21593;SDS011;10959;51.328;7.322;2023-06-14T12:57:57;3.08;;;1.48;;
21593;SDS011;10959;51.328;7.322;2023-06-14T13:00:23;5.00;;;1.67;;
21593;SDS011;10959;51.328;7.322;2023-06-14T13:02:51;2.00;;;1.30;;
21593;SDS011;10959;51.328;7.322;2023-06-14T13:05:18;3.58;;;1.45;;
21593;SDS011;10959;51.328;7.322;2023-06-14T13:07:44;1.60;;;1.40;;
21593;SDS011;10959;51.328;7.322;2023-06-14T13:10:11;1.95;;;1.40;;
21593;SDS011;10959;51.328;7.322;2023-06-14T13:12:37;3.35;;;1.50;;
21593;SDS011;10959;51.328;7.322;2023-06-14T13:15:06;2.75;;;1.27;;
21593;SDS011;10959;51.328;7.322;2023-06-14T13:17:33;2.75;;;1.35;;
21593;SDS011;10959;51.328;7.322;2023-06-14T13:20:03;2.63;;;1.40;;
21593;SDS011;10959;51.328;7.322;2023-06-14T13:22:30;1.83;;;1.50;;
21593;SDS011;10959;51.328;7.322;2023-06-14T13:24:56;4.90;;;1.42;;
21593;SDS011;10959;51.328;7.322;2023-06-14T13:27:23;4.00;;;1.75;;
21593;SDS011;10959;51.328;7.322;2023-06-14T13:29:49;1.85;;;1.45;;
21593;SDS011;10959;51.328;7.322;2023-06-14T13:32:17;1.92;;;1.23;;
21593;SDS011;10959;51.328;7.322;2023-06-14T13:34:44;1.48;;;1.23;;
21593;SDS011;10959;51.328;7.322;2023-06-14T13:37:10;1.27;;;1.17;;
21593;SDS011;10959;51.328;7.322;2023-06-14T13:39:36;2.20;;;1.38;;
21593;SDS011;10959;51.328;7.322;2023-06-14T13:42:03;3.67;;;1.67;;
21593;SDS011;10959;51.328;7.322;2023-06-14T13:44:30;4.25;;;1.98;;
21593;SDS011;10959;51.328;7.322;2023-06-14T13:46:56;1.60;;;1.50;;
21593;SDS011;10959;51.328;7.322;2023-06-14T13:49:24;2.78;;;1.70;;
21593;SDS011;10959;51.328;7.322;2023-06-14T13:51:50;1.88;;;1.38;;
21593;SDS011;10959;51.328;7.322;2023-06-14T13:54:18;1.40;;;1.20;;
21593;SDS011;10959;51.328;7.322;2023-06-14T13:56:46;3.22;;;1.40;;
21593;SDS011;10959;51.328;7.322;2023-06-14T13:59:12;1.77;;;1.42;;
21593;SDS011;10959;51.328;7.322;2023-06-14T14:01:39;1.90;;;1.40;;
21593;SDS011;10959;51.328;7.322;2023-06-14T14:04:06;2.47;;;1.48;;
21593;SDS011;10959;51.328;7.322;2023-06-14T14:06:33;2.65;;;1.00;;
21593;SDS011;10959;51.328;7.322;2023-06-14T14:09:00;3.38;;;1.60;;
21593;SDS011;10959;51.328;7.322;2023-06-14T14:11:26;3.63;;;1.77;;
21593;SDS011;10959;51.328;7.322;2023-06-14T14:13:57;2.15;;;1.27;;
21593;SDS011;10959;51.328;7.322;2023-06-14T14:16:23;3.97;;;1.40;;
21593;SDS011;10959;51.328;7.322;2023-06-14T14:18:49;2.70;;;1.40;;
21593;SDS011;10959;51.328;7.322;2023-06-14T14:21:16;1.60;;;1.27;;
21593;SDS011;10959;51.328;7.322;2023-06-14T14:23:43;2.33;;;1.40;;
21593;SDS011;10959;51.328;7.322;2023-06-14T14:26:10;2.88;;;1.48;;
21593;SDS011;10959;51.328;7.322;2023-06-14T14:28:37;3.33;;;1.60;;
21593;SDS011;10959;51.328;7.322;2023-06-14T14:31:03;3.20;;;1.27;;
21593;SDS011;10959;51.328;7.322;2023-06-14T14:33:30;1.65;;;1.42;;
21593;SDS011;10959;51.328;7.322;2023-06-14T14:35:56;4.35;;;1.60;;
21593;SDS011;10959;51.328;7.322;2023-06-14T14:38:22;2.85;;;1.42;;
21593;SDS011;10959;51.328;7.322;2023-06-14T14:40:50;3.10;;;1.40;;
21593;SDS011;10959;51.328;7.322;2023-06-14T14:43:16;2.28;;;1.52;;
21593;SDS011;10959;51.328;7.322;2023-06-14T14:45:43;1.65;;;1.45;;
21593;SDS011;10959;51.328;7.322;2023-06-14T14:48:09;2.88;;;1.70;;
21593;SDS011;10959;51.328;7.322;2023-06-14T14:50:36;4.07;;;1.67;;
21593;SDS011;10959;51.328;7.322;2023-06-14T14:53:02;2.42;;;1.38;;
21593;SDS011;10959;51.328;7.322;2023-06-14T14:55:28;2.53;;;1.70;;